Time;durP1;ratioP1;P1;durP2;ratioP2;P2;SDS_P1;SDS_P2;PMS_P1;PMS_P2;Temp;Humidity;BMP_temperature;BMP_pressure;BME280_temperature;BME280_humidity;BME280_pressure;Samples;Min_cycle;Max_cycle;Signal;HPM_P1;HPM_P2
2021/04/09 00:00:48;;;;;;;4.35;3.45;;;23.00;24.10;;;;;;5044889;28;20059;-56
2021/04/09 00:03:14;;;;;;;4.55;3.25;;;23.00;23.60;;;;;;5034486;28;20411;-54
2021/04/09 00:05:40;;;;;;;3.83;2.92;;;23.00;23.60;;;;;;5042048;28;20040;-52
2021/04/09 00:08:06;;;;;;;4.05;3.13;;;23.00;23.60;;;;;;5040409;28;20362;-52
2021/04/09 00:10:32;;;;;;;4.43;3.22;;;23.00;23.60;;;;;;5046302;28;20108;-55
2021/04/09 00:12:58;;;;;;;4.43;3.00;;;23.00;23.60;;;;;;5043135;28;20107;-54
2021/04/09 00:15:24;;;;;;;4.72;3.38;;;23.00;23.60;;;;;;5045039;28;20029;-53
2021/04/09 00:17:52;;;;;;;3.42;2.63;;;23.00;23.70;;;;;;5040387;28;20348;-52
2021/04/09 00:20:21;;;;;;;4.55;2.60;;;23.00;23.70;;;;;;5048409;28;20105;-55
2021/04/09 00:22:47;;;;;;;3.30;2.63;;;22.90;23.60;;;;;;5038629;28;20022;-54
2021/04/09 00:25:14;;;;;;;3.78;2.60;;;23.00;23.70;;;;;;5036870;28;20044;-57
2021/04/09 00:27:40;;;;;;;3.47;2.40;;;22.90;23.70;;;;;;5038932;28;20395;-53
2021/04/09 00:30:08;;;;;;;3.53;2.72;;;22.90;23.70;;;;;;5044517;28;20044;-48
2021/04/09 00:32:34;;;;;;;4.15;2.80;;;22.90;23.70;;;;;;5019262;28;20132;-55
2021/04/09 00:34:59;;;;;;;3.97;2.78;;;22.90;23.70;;;;;;5022390;28;20108;-52
2021/04/09 00:37:25;;;;;;;3.75;2.70;;;22.90;23.70;;;;;;5046379;28;20024;-54
2021/04/09 00:39:51;;;;;;;4.15;2.78;;;22.90;23.70;;;;;;5050387;28;20029;-56
2021/04/09 00:42:18;;;;;;;3.60;2.70;;;22.90;23.70;;;;;;5044422;28;20060;-50
2021/04/09 00:44:44;;;;;;;4.47;2.90;;;22.80;23.70;;;;;;5035133;28;20502;-54
2021/04/09 00:47:10;;;;;;;3.85;2.58;;;22.90;23.80;;;;;;5045478;28;20049;-54
2021/04/09 00:49:36;;;;;;;2.88;2.42;;;22.80;23.70;;;;;;5049229;28;20090;-54
2021/04/09 00:52:03;;;;;;;3.33;2.55;;;22.80;23.80;;;;;;5029123;28;20064;-54
2021/04/09 00:54:29;;;;;;;4.10;2.78;;;22.80;23.70;;;;;;5046983;28;20025;-52
2021/04/09 00:56:55;;;;;;;4.53;2.88;;;22.80;23.70;;;;;;5043082;28;20036;-53
2021/04/09 00:59:21;;;;;;;3.67;2.47;;;22.80;23.80;;;;;;5042521;28;20048;-55
2021/04/09 01:01:47;;;;;;;3.20;2.42;;;22.80;23.80;;;;;;5039036;28;20374;-54
2021/04/09 01:04:12;;;;;;;3.10;2.28;;;22.80;23.80;;;;;;5019183;28;20047;-53
2021/04/09 01:06:38;;;;;;;3.92;2.72;;;22.80;23.80;;;;;;5040781;28;20037;-53
2021/04/09 01:09:04;;;;;;;3.20;2.40;;;22.80;23.80;;;;;;5039982;28;20048;-51
2021/04/09 01:11:30;;;;;;;2.67;2.10;;;22.80;23.80;;;;;;5039300;28;20397;-54
2021/04/09 01:13:56;;;;;;;3.47;2.63;;;22.80;23.80;;;;;;5018624;28;20025;-55
2021/04/09 01:16:44;;;;;;;3.30;2.15;;;22.70;24.30;;;;;;5037323;28;20467;-57
2021/04/09 01:19:16;;;;;;;2.95;2.25;;;22.80;23.80;;;;;;5040860;28;20029;-54
2021/04/09 01:21:49;;;;;;;3.17;2.20;;;22.70;23.80;;;;;;5032495;28;20037;-53
2021/04/09 01:24:27;;;;;;;3.33;2.30;;;22.70;23.80;;;;;;5044959;28;20025;-55
2021/04/09 01:27:05;;;;;;;3.63;2.38;;;22.70;23.80;;;;;;5027588;28;20086;-56
2021/04/09 01:30:10;;;;;;;2.67;2.05;;;22.70;23.80;;;;;;5033765;28;20040;-54
2021/04/09 01:32:36;;;;;;;2.90;1.97;;;22.70;23.80;;;;;;5035056;28;20033;-53
2021/04/09 01:35:16;;;;;;;3.33;2.00;;;22.70;23.90;;;;;;5046692;28;20313;-55
2021/04/09 01:37:49;;;;;;;2.55;1.85;;;22.70;23.90;;;;;;5042199;28;20099;-56
2021/04/09 01:40:17;;;;;;;2.72;1.98;;;22.70;23.90;;;;;;5037318;28;20124;-56
2021/04/09 01:42:45;;;;;;;2.15;1.90;;;22.60;23.90;;;;;;5045761;28;20033;-54
2021/04/09 01:45:13;;;;;;;2.88;2.30;;;22.60;23.90;;;;;;5045070;28;20411;-56
2021/04/09 01:47:41;;;;;;;3.63;2.08;;;22.60;23.90;;;;;;5048320;28;20048;-51
2021/04/09 01:50:11;;;;;;;4.93;2.10;;;22.60;23.90;;;;;;5043337;28;20486;-55
2021/04/09 01:52:38;;;;;;;2.65;1.73;;;22.60;23.90;;;;;;5043045;28;20032;-52
2021/04/09 01:55:07;;;;;;;2.58;1.85;;;22.60;23.90;;;;;;5046568;28;20036;-54
2021/04/09 01:57:34;;;;;;;3.20;2.28;;;22.60;23.90;;;;;;5046260;28;20025;-54
2021/04/09 02:00:04;;;;;;;3.72;2.38;;;22.60;23.90;;;;;;5039835;28;20464;-52
2021/04/09 02:02:41;;;;;;;2.60;2.00;;;22.60;23.90;;;;;;5050175;28;20040;-53
2021/04/09 02:05:07;;;;;;;2.65;2.00;;;22.60;23.90;;;;;;5047250;28;20053;-51
2021/04/09 02:07:34;;;;;;;2.50;1.75;;;22.50;23.90;;;;;;5048353;28;20057;-52
2021/04/09 02:10:03;;;;;;;2.70;1.73;;;22.60;23.90;;;;;;5045788;28;20037;-50
2021/04/09 02:12:29;;;;;;;2.75;2.08;;;22.60;24.00;;;;;;5045974;28;20194;-57
2021/04/09 02:14:56;;;;;;;3.08;2.17;;;22.60;24.00;;;;;;5052251;28;20151;-56
2021/04/09 02:17:23;;;;;;;2.08;1.58;;;22.50;23.90;;;;;;5045029;28;20502;-56
2021/04/09 02:19:49;;;;;;;3.00;1.90;;;22.50;23.90;;;;;;5047804;28;20021;-53
2021/04/09 02:22:18;;;;;;;2.40;1.85;;;22.50;24.00;;;;;;5044828;28;20020;-54
2021/04/09 02:24:47;;;;;;;2.58;1.90;;;22.60;24.00;;;;;;5045376;28;20083;-54
2021/04/09 02:27:13;;;;;;;2.65;2.03;;;22.50;24.00;;;;;;5040966;28;20029;-55
2021/04/09 02:29:40;;;;;;;3.15;1.90;;;22.50;24.00;;;;;;5043626;28;20061;-52
2021/04/09 02:32:06;;;;;;;2.88;1.55;;;22.50;24.00;;;;;;5042446;28;20095;-51
2021/04/09 02:34:32;;;;;;;2.75;1.92;;;22.50;24.00;;;;;;5048002;28;20028;-51
2021/04/09 02:36:58;;;;;;;2.83;1.70;;;22.50;24.00;;;;;;5039389;28;20025;-55
2021/04/09 02:39:28;;;;;;;2.78;1.73;;;22.50;24.00;;;;;;5042312;28;20024;-56
2021/04/09 02:42:02;;;;;;;3.08;1.80;;;22.50;24.00;;;;;;5048389;28;20021;-55
2021/04/09 02:44:28;;;;;;;;;;;22.50;24.00;;;;;;5052288;28;20417;-52
2021/04/09 02:47:05;;;;;;;1.88;1.55;;;22.40;24.00;;;;;;5045594;28;19948;-50
2021/04/09 02:49:48;;;;;;;2.08;1.67;;;22.40;24.10;;;;;;5047679;28;20051;-52
2021/04/09 02:52:21;;;;;;;3.92;2.00;;;22.40;24.10;;;;;;5042572;28;20029;-51
2021/04/09 02:54:52;;;;;;;2.78;1.60;;;22.40;24.10;;;;;;5044150;28;20504;-52
2021/04/09 02:57:21;;;;;;;2.60;1.77;;;22.40;24.10;;;;;;5054021;28;20020;-53
2021/04/09 02:59:49;;;;;;;2.58;2.00;;;22.40;24.10;;;;;;5028396;28;20087;-54
2021/04/09 03:02:15;;;;;;;2.58;1.83;;;22.40;24.10;;;;;;5051886;28;20025;-55
2021/04/09 03:04:41;;;;;;;2.78;1.73;;;22.40;24.10;;;;;;5042912;28;20116;-52
2021/04/09 03:07:10;;;;;;;4.45;1.98;;;22.40;24.10;;;;;;5039894;28;20021;-48
2021/04/09 03:09:37;;;;;;;2.13;1.58;;;22.40;24.20;;;;;;5049988;28;20413;-52
2021/04/09 03:12:17;;;;;;;2.60;1.70;;;22.40;24.20;;;;;;5042889;28;20102;-50
2021/04/09 03:14:44;;;;;;;2.58;1.98;;;22.40;24.20;;;;;;5040640;28;20026;-55
2021/04/09 03:17:18;;;;;;;3.22;2.00;;;22.40;24.20;;;;;;5043186;28;20037;-49
2021/04/09 03:19:44;;;;;;;;;;;22.40;24.20;;;;;;5039590;28;20392;-55
2021/04/09 03:22:12;;;;;;;2.50;1.65;;;22.40;24.20;;;;;;5044757;28;19979;-52
2021/04/09 03:24:37;;;;;;;3.17;1.67;;;22.40;24.20;;;;;;5046319;28;20028;-51
2021/04/09 03:27:07;;;;;;;3.03;1.98;;;22.40;24.20;;;;;;5051567;28;20044;-57
2021/04/09 03:29:33;;;;;;;2.35;1.65;;;22.40;24.20;;;;;;5051998;28;20044;-54
2021/04/09 03:31:59;;;;;;;2.72;1.92;;;22.40;24.20;;;;;;5033050;28;20037;-52
2021/04/09 03:34:25;;;;;;;2.65;1.88;;;22.40;24.30;;;;;;5049049;28;20029;-54
2021/04/09 03:36:50;;;;;;;2.70;1.90;;;22.30;24.20;;;;;;5040698;28;20037;-50
2021/04/09 03:39:16;;;;;;;2.80;1.75;;;22.30;24.20;;;;;;5039703;28;20021;-54
2021/04/09 03:41:42;;;;;;;2.78;1.80;;;22.30;24.20;;;;;;5046453;28;20021;-53
2021/04/09 03:44:08;;;;;;;2.78;1.95;;;22.30;24.20;;;;;;5043461;28;20102;-53
2021/04/09 03:46:33;;;;;;;2.88;1.73;;;22.30;24.20;;;;;;5044288;28;20457;-56
2021/04/09 03:48:59;;;;;;;2.58;1.70;;;22.30;24.30;;;;;;5040402;28;20140;-52
2021/04/09 03:51:25;;;;;;;2.20;1.60;;;22.30;24.30;;;;;;5051355;28;20020;-52
2021/04/09 03:53:50;;;;;;;2.05;1.55;;;22.30;24.30;;;;;;5036306;28;20030;-52
2021/04/09 03:56:16;;;;;;;2.40;1.70;;;22.30;24.30;;;;;;5052304;28;20029;-53
2021/04/09 03:58:42;;;;;;;1.75;1.40;;;22.30;24.30;;;;;;5049403;28;20033;-53
2021/04/09 04:01:07;;;;;;;2.58;1.67;;;22.30;24.30;;;;;;5031834;28;20137;-56
2021/04/09 04:03:33;;;;;;;1.63;1.30;;;22.30;24.30;;;;;;5041897;28;20505;-52
2021/04/09 04:05:59;;;;;;;2.13;1.60;;;22.30;24.80;;;;;;5042358;28;20029;-50
2021/04/09 04:08:25;;;;;;;2.30;1.60;;;22.30;24.30;;;;;;5036739;28;20191;-54
2021/04/09 04:10:50;;;;;;;2.00;1.48;;;22.30;24.30;;;;;;5039743;28;20052;-50
2021/04/09 04:13:16;;;;;;;2.67;1.55;;;22.30;24.30;;;;;;5039604;28;20357;-55
2021/04/09 04:15:42;;;;;;;2.30;1.55;;;22.30;24.30;;;;;;5045496;28;20040;-52
2021/04/09 04:18:08;;;;;;;2.38;1.45;;;22.30;24.30;;;;;;5035658;28;20045;-54
2021/04/09 04:20:33;;;;;;;2.92;1.50;;;22.30;24.30;;;;;;5045333;28;20029;-53
2021/04/09 04:22:59;;;;;;;2.38;1.70;;;22.20;24.30;;;;;;5037484;28;20287;-52
2021/04/09 04:25:25;;;;;;;1.73;1.38;;;22.20;24.30;;;;;;5043286;28;20075;-50
2021/04/09 04:27:51;;;;;;;2.60;1.65;;;22.20;24.30;;;;;;5040702;28;20021;-52
2021/04/09 04:30:17;;;;;;;2.00;1.48;;;22.20;24.30;;;;;;5044083;28;20472;-53
2021/04/09 04:32:42;;;;;;;2.42;1.33;;;22.20;24.30;;;;;;5043352;28;20400;-51
2021/04/09 04:35:09;;;;;;;2.40;1.40;;;22.20;24.30;;;;;;5042928;28;20112;-54
2021/04/09 04:37:34;;;;;;;2.35;1.60;;;22.20;24.30;;;;;;5040134;28;20037;-53
2021/04/09 04:40:00;;;;;;;2.47;1.63;;;22.20;24.30;;;;;;5044724;28;20037;-48
2021/04/09 04:42:26;;;;;;;2.17;1.60;;;22.20;24.30;;;;;;5036736;28;20037;-53
2021/04/09 04:44:53;;;;;;;2.30;1.65;;;22.20;24.30;;;;;;5051293;28;20120;-55
2021/04/09 04:47:19;;;;;;;2.20;1.67;;;22.20;24.30;;;;;;5035021;28;20050;-54
2021/04/09 04:49:45;;;;;;;2.17;1.27;;;22.20;24.30;;;;;;5018683;28;20037;-50
2021/04/09 04:52:10;;;;;;;2.35;1.50;;;22.20;24.40;;;;;;5049692;28;20481;-49
2021/04/09 04:54:36;;;;;;;1.95;1.50;;;22.20;24.30;;;;;;5043192;28;20033;-55
2021/04/09 04:57:02;;;;;;;1.92;1.50;;;22.20;24.30;;;;;;5047581;28;20044;-53
2021/04/09 04:59:27;;;;;;;1.88;1.30;;;22.20;24.30;;;;;;5045244;28;20428;-54
2021/04/09 05:01:53;;;;;;;1.55;1.25;;;22.20;24.30;;;;;;5045279;28;20045;-54
2021/04/09 05:04:19;;;;;;;2.22;1.42;;;22.10;24.30;;;;;;5043856;28;20025;-52
2021/04/09 05:06:45;;;;;;;2.05;1.48;;;22.10;24.30;;;;;;5042624;28;20102;-53
2021/04/09 05:09:10;;;;;;;2.25;1.30;;;22.10;24.40;;;;;;5020534;28;20467;-54
2021/04/09 05:11:36;;;;;;;2.33;1.40;;;22.10;24.40;;;;;;5021408;28;20026;-53
2021/04/09 05:14:02;;;;;;;1.38;1.27;;;22.10;24.40;;;;;;5041023;28;20026;-56
2021/04/09 05:16:28;;;;;;;2.75;1.48;;;22.10;24.40;;;;;;5028235;28;20044;-57
2021/04/09 05:18:54;;;;;;;2.25;1.42;;;22.10;24.40;;;;;;5049185;28;20029;-50
2021/04/09 05:21:20;;;;;;;1.58;1.20;;;22.10;24.40;;;;;;5045919;28;20025;-50
2021/04/09 05:23:45;;;;;;;1.77;1.35;;;22.10;24.40;;;;;;5040499;28;20032;-53
2021/04/09 05:26:11;;;;;;;1.70;1.25;;;22.10;24.40;;;;;;5034460;28;20337;-52
2021/04/09 05:28:37;;;;;;;1.70;1.10;;;22.10;24.40;;;;;;5040305;28;20029;-49
2021/04/09 05:31:02;;;;;;;1.60;1.20;;;22.10;24.40;;;;;;5049279;28;20057;-52
2021/04/09 05:33:28;;;;;;;2.22;1.73;;;22.10;24.40;;;;;;5048883;28;20428;-57
2021/04/09 05:35:54;;;;;;;2.05;1.50;;;22.10;24.40;;;;;;5036918;28;20327;-54
2021/04/09 05:38:20;;;;;;;1.95;1.33;;;22.10;24.40;;;;;;5050624;28;20029;-52
2021/04/09 05:40:45;;;;;;;2.45;1.50;;;22.10;24.40;;;;;;5038216;28;20029;-54
2021/04/09 05:43:11;;;;;;;1.42;1.25;;;22.10;24.50;;;;;;5039585;28;20069;-53
2021/04/09 05:45:37;;;;;;;1.55;1.35;;;22.10;24.50;;;;;;5046508;28;20059;-53
2021/04/09 05:48:05;;;;;;;2.10;1.45;;;22.10;24.50;;;;;;5051121;28;20114;-46
2021/04/09 05:50:32;;;;;;;3.45;1.50;;;22.10;24.50;;;;;;5043740;28;20056;-52
2021/04/09 05:52:58;;;;;;;2.28;1.20;;;22.10;24.50;;;;;;5048778;28;20033;-53
2021/04/09 05:55:24;;;;;;;2.28;1.42;;;22.00;24.50;;;;;;5025410;28;20021;-48
2021/04/09 05:57:50;;;;;;;1.83;1.40;;;22.10;24.50;;;;;;5036808;28;20029;-54
2021/04/09 06:00:17;;;;;;;1.88;1.38;;;22.10;24.50;;;;;;5045790;28;20108;-55
2021/04/09 06:02:43;;;;;;;2.20;1.30;;;22.10;24.50;;;;;;5036034;28;20034;-53
2021/04/09 06:05:09;;;;;;;2.20;1.30;;;22.00;24.50;;;;;;5042848;28;20351;-52
2021/04/09 06:07:35;;;;;;;1.55;1.13;;;22.10;24.50;;;;;;5037658;28;20103;-55
2021/04/09 06:10:01;;;;;;;2.92;1.33;;;22.00;24.50;;;;;;5037399;28;20029;-56
2021/04/09 06:12:27;;;;;;;2.53;1.50;;;22.10;24.50;;;;;;5039615;28;20067;-56
2021/04/09 06:14:54;;;;;;;2.22;1.40;;;22.00;24.50;;;;;;5047606;28;20039;-55
2021/04/09 06:17:20;;;;;;;2.80;1.42;;;22.00;24.50;;;;;;5033891;28;20082;-55
2021/04/09 06:19:49;;;;;;;2.42;1.38;;;22.00;24.50;;;;;;5021645;28;20037;-53
2021/04/09 06:22:16;;;;;;;2.35;1.30;;;22.00;24.60;;;;;;5038610;28;20029;-55
2021/04/09 06:24:42;;;;;;;1.83;1.38;;;22.00;24.60;;;;;;5042719;28;20044;-53
2021/04/09 06:27:09;;;;;;;2.00;1.48;;;22.00;24.60;;;;;;5053618;28;20041;-53
2021/04/09 06:29:35;;;;;;;2.20;1.50;;;22.00;24.60;;;;;;5042438;28;20476;-56
2021/04/09 06:32:01;;;;;;;2.40;1.30;;;22.00;24.60;;;;;;5052233;28;20033;-52
2021/04/09 06:34:27;;;;;;;1.85;1.20;;;22.00;24.70;;;;;;5050505;28;20376;-53
2021/04/09 06:36:52;;;;;;;2.95;1.70;;;22.00;24.70;;;;;;5044079;28;20025;-55
2021/04/09 06:39:18;;;;;;;2.67;1.30;;;22.00;24.70;;;;;;5045309;28;20399;-55
2021/04/09 06:41:44;;;;;;;2.10;1.38;;;22.00;24.70;;;;;;5019642;28;20025;-55
2021/04/09 06:44:10;;;;;;;2.13;1.40;;;22.00;24.70;;;;;;5025523;28;20102;-50
2021/04/09 06:46:37;;;;;;;3.28;1.55;;;22.00;24.80;;;;;;5038264;28;20045;-50
2021/04/09 06:49:03;;;;;;;1.80;1.30;;;22.00;24.80;;;;;;5038956;28;20045;-54
2021/04/09 06:51:29;;;;;;;1.50;1.20;;;22.00;24.70;;;;;;5039916;28;20029;-54
2021/04/09 06:53:56;;;;;;;1.75;1.15;;;22.00;24.80;;;;;;5038536;28;20099;-55
2021/04/09 06:56:24;;;;;;;3.08;1.35;;;22.00;24.80;;;;;;5040945;28;20125;-53
2021/04/09 06:58:51;;;;;;;1.73;1.20;;;22.00;24.80;;;;;;5044313;28;20471;-53
2021/04/09 07:01:18;;;;;;;2.72;1.27;;;22.00;24.90;;;;;;5040520;28;20022;-56
2021/04/09 07:03:44;;;;;;;2.38;1.30;;;22.00;24.90;;;;;;5046013;28;20086;-54
2021/04/09 07:06:10;;;;;;;1.75;1.08;;;22.00;24.90;;;;;;5045321;28;20392;-52
2021/04/09 07:08:42;;;;;;;1.73;1.08;;;22.00;24.80;;;;;;5046904;28;20037;-56
2021/04/09 07:11:12;;;;;;;2.40;1.33;;;22.00;24.80;;;;;;5045265;28;20150;-55
2021/04/09 07:13:52;;;;;;;1.95;1.20;;;22.00;24.80;;;;;;5046531;28;20017;-52
2021/04/09 07:16:19;;;;;;;2.10;1.33;;;22.00;24.80;;;;;;5044828;28;20107;-58
2021/04/09 07:18:57;;;;;;;1.80;1.10;;;22.00;24.80;;;;;;5045074;28;20103;-55
2021/04/09 07:21:27;;;;;;;2.42;1.25;;;22.10;24.80;;;;;;5047267;28;20441;-48
2021/04/09 07:24:14;;;;;;;2.42;1.63;;;22.10;24.90;;;;;;5037854;28;20433;-50
2021/04/09 07:26:48;;;;;;;2.92;1.80;;;22.10;25.00;;;;;;5050077;28;20052;-56
2021/04/09 07:29:36;;;;;;;2.88;1.75;;;22.10;25.20;;;;;;5036753;28;20456;-50
2021/04/09 07:32:14;;;;;;;2.08;1.70;;;22.10;25.30;;;;;;5019489;28;20029;-55
2021/04/09 07:35:00;;;;;;;2.38;1.80;;;22.20;25.30;;;;;;5046841;28;20036;-55
2021/04/09 07:37:59;;;;;;;2.67;1.52;;;22.20;25.20;;;;;;5046037;28;20437;-53
2021/04/09 07:40:29;;;;;;;3.47;2.22;;;22.20;25.20;;;;;;4999754;28;20040;-54
2021/04/09 07:42:56;;;;;;;3.40;1.98;;;22.20;25.10;;;;;;5040643;28;20017;-53
2021/04/09 07:45:24;;;;;;;2.33;1.73;;;22.20;25.10;;;;;;5044573;28;20046;-54
2021/04/09 07:48:08;;;;;;;2.00;1.75;;;22.20;25.10;;;;;;5050582;28;20049;-54
2021/04/09 07:50:43;;;;;;;2.33;1.80;;;22.30;25.10;;;;;;5025136;28;20028;-50
2021/04/09 07:53:13;;;;;;;1.52;1.42;;;22.30;25.10;;;;;;5027619;28;20067;-56
2021/04/09 07:55:39;;;;;;;2.47;1.80;;;22.30;25.00;;;;;;5043933;28;20103;-52
2021/04/09 07:58:24;;;;;;;1.98;1.65;;;22.30;25.00;;;;;;5045095;28;20108;-54
2021/04/09 08:00:52;;;;;;;3.10;1.80;;;22.30;25.00;;;;;;5044530;28;20044;-51
2021/04/09 08:03:39;;;;;;;2.30;1.55;;;22.30;25.00;;;;;;5040337;28;20029;-56
2021/04/09 08:06:12;;;;;;;3.30;1.73;;;22.30;25.00;;;;;;5045689;28;20029;-54
2021/04/09 08:08:47;;;;;;;2.28;1.40;;;22.30;25.00;;;;;;5037624;28;20037;-55
2021/04/09 08:11:35;;;;;;;2.17;1.50;;;22.40;25.10;;;;;;5049889;28;20086;-56
2021/04/09 08:14:13;;;;;;;2.55;1.30;;;22.30;25.10;;;;;;5043784;28;20036;-50
2021/04/09 08:16:41;;;;;;;2.22;1.65;;;22.30;25.10;;;;;;5016176;28;20029;-50
2021/04/09 08:19:19;;;;;;;1.63;1.50;;;22.20;25.20;;;;;;5037246;28;20036;-54
2021/04/09 08:21:56;;;;;;;1.77;1.30;;;22.20;25.30;;;;;;5041824;28;20116;-53
2021/04/09 08:24:28;;;;;;;2.58;1.40;;;22.10;25.30;;;;;;5040085;28;20041;-57
2021/04/09 08:26:54;;;;;;;3.15;1.70;;;22.10;25.40;;;;;;5041392;28;20029;-51
2021/04/09 08:29:22;;;;;;;1.77;1.50;;;22.00;25.40;;;;;;5042987;28;20048;-54
2021/04/09 08:31:48;;;;;;;2.08;1.20;;;22.00;25.40;;;;;;5045480;28;20101;-52
2021/04/09 08:34:20;;;;;;;2.13;1.40;;;22.00;25.50;;;;;;5036276;28;20060;-54
2021/04/09 08:36:50;;;;;;;2.28;1.33;;;22.00;25.60;;;;;;5043236;28;20032;-51
2021/04/09 08:39:18;;;;;;;2.00;1.42;;;21.90;25.60;;;;;;5041020;28;20020;-52
2021/04/09 08:41:48;;;;;;;2.72;1.40;;;21.90;25.60;;;;;;5039145;28;20079;-51
2021/04/09 08:44:14;;;;;;;2.13;1.20;;;21.90;25.60;;;;;;5045554;28;20483;-52
2021/04/09 08:46:41;;;;;;;1.60;1.20;;;21.90;25.70;;;;;;5038422;28;20053;-52
2021/04/09 08:49:10;;;;;;;1.60;1.15;;;21.90;25.70;;;;;;5042341;28;20095;-53
2021/04/09 08:51:40;;;;;;;2.53;1.30;;;21.90;25.70;;;;;;5040375;28;20029;-53
2021/04/09 08:54:15;;;;;;;2.25;1.45;;;21.90;25.80;;;;;;5041565;28;20080;-51
2021/04/09 08:56:41;;;;;;;1.63;1.20;;;21.90;25.80;;;;;;5035578;28;20084;-55
2021/04/09 08:59:06;;;;;;;1.58;1.23;;;21.90;25.80;;;;;;5044885;28;20025;-53
2021/04/09 09:01:32;;;;;;;1.80;1.30;;;21.90;25.80;;;;;;5050261;28;20482;-53
2021/04/09 09:04:34;;;;;;;2.30;1.35;;;21.90;25.80;;;;;;5043926;28;20103;-51
2021/04/09 09:06:59;;;;;;;2.05;1.20;;;21.90;25.90;;;;;;4952206;29;20050;-52
2021/04/09 09:09:30;;;;;;;2.65;1.38;;;21.90;25.90;;;;;;5018514;28;20061;-52
2021/04/09 09:12:00;;;;;;;1.92;1.13;;;21.80;25.90;;;;;;5035266;28;20033;-53
2021/04/09 09:14:32;;;;;;;1.70;1.20;;;21.80;26.00;;;;;;5047948;28;20033;-55
2021/04/09 09:17:21;;;;;;;1.95;1.20;;;21.80;26.00;;;;;;5024434;28;20056;-52
2021/04/09 09:20:05;;;;;;;2.92;1.23;;;21.80;26.00;;;;;;5036841;28;20026;-54
2021/04/09 09:22:48;;;;;;;3.30;1.20;;;21.80;26.10;;;;;;5039919;28;20032;-52
2021/04/09 09:25:15;;;;;;;1.95;1.33;;;21.80;26.20;;;;;;5035895;28;20033;-54
2021/04/09 09:27:45;;;;;;;2.33;1.30;;;21.80;26.20;;;;;;5042891;28;20033;-56
2021/04/09 09:30:31;;;;;;;2.83;1.30;;;21.80;26.20;;;;;;5041856;28;20368;-51
2021/04/09 09:33:26;;;;;;;3.63;1.35;;;21.80;26.30;;;;;;5040187;28;20021;-51
2021/04/09 09:36:12;;;;;;;3.00;1.45;;;21.80;26.30;;;;;;5049750;28;20062;-48
2021/04/09 09:38:48;;;;;;;1.95;1.27;;;21.80;26.30;;;;;;5037780;28;20041;-52
2021/04/09 09:41:34;;;;;;;2.67;1.15;;;21.80;26.40;;;;;;5039439;28;20091;-48
2021/04/09 09:44:00;;;;;;;3.25;1.70;;;21.80;26.40;;;;;;5052003;28;20028;-53
2021/04/09 09:46:53;;;;;;;2.78;1.40;;;21.80;26.40;;;;;;5047190;28;20045;-51
2021/04/09 09:49:21;;;;;;;2.42;1.40;;;21.80;26.40;;;;;;5036394;28;20088;-50
2021/04/09 09:51:47;;;;;;;2.40;1.30;;;21.80;26.50;;;;;;5053578;28;20033;-48
2021/04/09 09:54:30;;;;;;;1.77;1.05;;;21.80;26.40;;;;;;5024212;28;20025;-48
2021/04/09 09:56:58;;;;;;;2.10;1.13;;;21.80;26.50;;;;;;5046516;28;20028;-51
2021/04/09 09:59:28;;;;;;;2.10;1.10;;;21.80;26.50;;;;;;5018629;28;20064;-47
2021/04/09 10:01:58;;;;;;;3.17;1.50;;;21.80;26.50;;;;;;5035241;28;20513;-51
2021/04/09 10:04:25;;;;;;;3.33;1.30;;;21.80;26.50;;;;;;5036738;28;20040;-51
2021/04/09 10:06:54;;;;;;;2.45;1.25;;;21.80;26.50;;;;;;5039086;28;20068;-53
2021/04/09 10:09:31;;;;;;;1.90;1.10;;;21.80;26.50;;;;;;5048051;28;20056;-51
2021/04/09 10:12:00;;;;;;;2.65;1.35;;;21.80;26.50;;;;;;5045573;28;20025;-54
2021/04/09 10:14:28;;;;;;;2.95;1.05;;;21.80;26.50;;;;;;5040241;28;20036;-52
2021/04/09 10:16:58;;;;;;;1.38;0.95;;;21.80;27.00;;;;;;5042644;28;20060;-52
2021/04/09 10:19:24;;;;;;;2.60;1.00;;;21.80;26.40;;;;;;5038113;28;20104;-54
2021/04/09 10:21:52;;;;;;;2.13;1.17;;;21.70;26.40;;;;;;5044257;28;20402;-51
2021/04/09 10:24:21;;;;;;;1.33;0.95;;;21.80;26.40;;;;;;5046653;28;20030;-52
2021/04/09 10:26:56;;;;;;;1.90;0.90;;;21.80;26.50;;;;;;5048908;28;20064;-51
2021/04/09 10:29:28;;;;;;;2.70;1.30;;;21.80;26.50;;;;;;5033283;28;20525;-51
2021/04/09 10:31:56;;;;;;;2.88;1.17;;;21.80;26.50;;;;;;5017756;28;20033;-50
2021/04/09 10:34:26;;;;;;;2.20;1.02;;;21.70;26.50;;;;;;5043474;28;20333;-55
2021/04/09 10:36:53;;;;;;;1.83;1.10;;;21.80;26.60;;;;;;5039556;28;20053;-51
2021/04/09 10:39:21;;;;;;;3.72;1.60;;;21.70;26.60;;;;;;5039082;28;20036;-57
2021/04/09 10:41:55;;;;;;;2.30;1.27;;;21.70;26.70;;;;;;5047913;28;20025;-55
2021/04/09 10:44:24;;;;;;;3.65;1.27;;;21.80;26.90;;;;;;5053508;28;20033;-53
2021/04/09 10:46:58;;;;;;;2.15;1.42;;;21.70;26.90;;;;;;5052607;28;20111;-52
2021/04/09 10:49:26;;;;;;;3.20;1.40;;;21.80;27.10;;;;;;5023128;28;20464;-53
2021/04/09 10:51:55;;;;;;;2.85;1.20;;;21.80;27.20;;;;;;5052213;28;20029;-54
2021/04/09 10:54:24;;;;;;;2.88;1.27;;;21.80;27.20;;;;;;5040835;28;20453;-49
2021/04/09 10:57:04;;;;;;;3.20;1.33;;;21.80;27.30;;;;;;5047301;28;20029;-49
2021/04/09 10:59:31;;;;;;;2.20;1.15;;;21.80;27.30;;;;;;5045300;28;20134;-48
2021/04/09 11:01:58;;;;;;;1.90;1.20;;;21.90;27.50;;;;;;5054802;28;20029;-52
2021/04/09 11:04:25;;;;;;;2.33;1.40;;;21.90;27.60;;;;;;5049622;28;20026;-52
2021/04/09 11:07:05;;;;;;;2.88;1.20;;;22.00;27.70;;;;;;5039042;28;20437;-49
2021/04/09 11:09:48;;;;;;;2.13;1.23;;;22.10;27.90;;;;;;5044425;28;20081;-54
2021/04/09 11:12:20;;;;;;;2.47;1.23;;;22.10;27.90;;;;;;5041909;28;20045;-50
2021/04/09 11:14:51;;;;;;;1.52;1.00;;;22.20;28.00;;;;;;5029955;28;20026;-51
2021/04/09 11:17:26;;;;;;;2.58;1.20;;;22.20;28.00;;;;;;5037484;28;20029;-50
2021/04/09 11:19:57;;;;;;;2.08;1.08;;;22.30;28.00;;;;;;5031098;28;20039;-49
2021/04/09 11:22:28;;;;;;;2.05;1.13;;;22.30;28.00;;;;;;5040307;28;20099;-52
2021/04/09 11:25:05;;;;;;;2.78;1.15;;;22.40;28.10;;;;;;5046637;28;20455;-49
2021/04/09 11:27:33;;;;;;;4.07;1.05;;;22.40;28.00;;;;;;5052680;28;20106;-56
2021/04/09 11:30:19;;;;;;;2.35;0.93;;;22.50;28.10;;;;;;5048227;28;20404;-51
2021/04/09 11:32:52;;;;;;;2.03;1.05;;;22.50;28.00;;;;;;5038280;28;20075;-54
2021/04/09 11:35:20;;;;;;;2.13;0.95;;;22.60;28.10;;;;;;5038104;28;20110;-50
2021/04/09 11:37:54;;;;;;;2.17;1.20;;;22.70;28.10;;;;;;5039823;28;20018;-50
2021/04/09 11:40:41;;;;;;;2.45;1.17;;;22.80;28.10;;;;;;5048166;28;20503;-49
2021/04/09 11:43:08;;;;;;;2.72;0.90;;;22.90;28.10;;;;;;5035555;28;20041;-55
2021/04/09 11:45:43;;;;;;;1.50;0.75;;;23.00;28.10;;;;;;5038623;28;20044;-54
2021/04/09 11:48:30;;;;;;;1.75;0.90;;;23.10;28.00;;;;;;5051181;28;20048;-59
2021/04/09 11:51:16;;;;;;;1.27;0.65;;;23.20;27.90;;;;;;5036315;28;20425;-57
2021/04/09 11:53:42;;;;;;;1.92;0.80;;;23.20;27.80;;;;;;5036757;28;20060;-56
2021/04/09 11:56:08;;;;;;;1.58;0.68;;;23.20;27.70;;;;;;5032712;28;20436;-55
2021/04/09 11:58:41;;;;;;;1.42;0.70;;;23.20;27.60;;;;;;5051263;28;20033;-58
2021/04/09 12:01:07;;;;;;;1.48;0.80;;;23.20;27.50;;;;;;5042194;28;20029;-55
2021/04/09 12:03:51;;;;;;;2.17;0.85;;;23.10;27.40;;;;;;5043388;28;20108;-50
2021/04/09 12:06:18;;;;;;;0.90;0.60;;;23.10;27.40;;;;;;5043843;28;20147;-52
2021/04/09 12:08:45;;;;;;;3.35;0.75;;;23.10;27.50;;;;;;5027951;28;20493;-54
2021/04/09 12:11:12;;;;;;;2.78;0.93;;;23.10;27.60;;;;;;5037410;28;20167;-59
2021/04/09 12:13:42;;;;;;;2.25;0.63;;;23.10;27.70;;;;;;5039999;28;20410;-51
2021/04/09 12:16:08;;;;;;;2.15;0.75;;;23.20;27.80;;;;;;5046348;28;20113;-52
2021/04/09 12:18:34;;;;;;;1.08;0.52;;;23.10;27.80;;;;;;5039795;28;20178;-55
2021/04/09 12:21:00;;;;;;;1.88;0.75;;;23.20;27.90;;;;;;5043293;28;20134;-57
2021/04/09 12:23:27;;;;;;;1.27;0.60;;;23.20;27.80;;;;;;5027812;28;20081;-53
2021/04/09 12:25:57;;;;;;;1.08;0.40;;;23.20;27.70;;;;;;5041170;28;20100;-57
2021/04/09 12:28:23;;;;;;;1.02;0.40;;;23.20;27.50;;;;;;5036524;28;20488;-49
2021/04/09 12:30:49;;;;;;;2.17;0.50;;;23.30;27.40;;;;;;5046673;28;20364;-51
2021/04/09 12:33:14;;;;;;;0.38;0.38;;;23.30;27.30;;;;;;5029276;28;20025;-56
2021/04/09 12:35:40;;;;;;;0.90;0.50;;;23.30;27.30;;;;;;5039584;28;20138;-51
2021/04/09 12:38:06;;;;;;;0.88;0.60;;;23.40;27.20;;;;;;5040313;28;20033;-56
2021/04/09 12:40:32;;;;;;;0.63;0.47;;;23.40;27.10;;;;;;5030783;28;20103;-56
2021/04/09 12:42:59;;;;;;;1.15;0.70;;;23.40;27.10;;;;;;5035636;28;20029;-53
2021/04/09 12:45:25;;;;;;;0.95;0.63;;;23.50;27.00;;;;;;5037062;28;20053;-51
2021/04/09 12:47:51;;;;;;;1.80;0.90;;;23.50;27.00;;;;;;5044022;28;20450;-53
2021/04/09 12:50:17;;;;;;;0.85;0.70;;;23.50;26.90;;;;;;5025385;28;20025;-52
2021/04/09 12:52:43;;;;;;;1.33;0.90;;;23.50;26.80;;;;;;5046372;28;20148;-52
2021/04/09 12:55:10;;;;;;;1.58;1.10;;;23.50;26.80;;;;;;5043371;28;20031;-53
2021/04/09 12:57:36;;;;;;;1.88;1.30;;;23.50;26.70;;;;;;5042915;28;20620;-49
2021/04/09 13:00:07;;;;;;;2.42;1.42;;;23.50;26.70;;;;;;5049180;28;20148;-56